Caribbean Galaxy — 3EZV4 — position and weather

sailwx.info

Track history (hours):
 
Tides and Currents Weather Stations Pressure Air Temp Water Temp Dewpoint Dewpoint Depression Visibility Wind Speed Wind Dir Waves Ship Positions

Caribbean Galaxy

Last reported at 2017-Oct-02 22:15 UTC. Time now 2017-Oct-20 20:09 UTC.
Position N 01°15' E 104°07'.
Warning: this ship's position is 17 days out of date.

Length 245 m; draft 11.9 m.

Type: Ship (hazmat cat A). MMSI: 357449000.

Date/timePositionNaut miles runAvg speedWind from/ knotsBaromVisibWave heightAir tempDewpointWater temp
2017-Oct-02 22:15N 01°15' E 104°07'1 1.9
2017-Oct-02 21:58N 01°15' E 104°06'1 2.3
2017-Oct-02 21:30N 01°15' E 104°05'1 2.3
2017-Oct-02 21:00N 01°14' E 104°04'1 2.3
2017-Oct-02 20:30N 01°14' E 104°03'1 2.3
2017-Oct-02 19:57N 01°14' E 104°01'1 2.3
2017-Oct-02 19:29N 01°14' E 104°00'1 2.5
2017-Oct-02 19:00N 01°14' E 103°59'1 2.3
2017-Oct-02 18:31N 01°14' E 103°58'1 2.3
2017-Oct-02 18:00N 01°13' E 103°57'8 1.1
2017-Oct-02 10:10N 01°15' E 104°05'2 9.8
2017-Oct-02 10:00N 01°14' E 104°04'510.0
2017-Oct-02 09:30N 01°14' E 103°59'510.2
2017-Oct-02 09:01N 01°12' E 103°54'4 9.0
2017-Oct-02 08:31N 01°10' E 103°50'4 8.9
2017-Oct-02 08:00N 01°08' E 103°46'5 9.6
2017-Oct-02 07:31N 01°05' E 103°43'5 9.2
2017-Oct-02 07:00N 01°03' E 103°39'4 7.9
2017-Oct-02 06:30N 01°06' E 103°36'1 2.0
2017-Oct-02 06:01N 01°07' E 103°36'0 0.7
2017-Oct-02 05:30N 01°07' E 103°36'0 0.1
2017-Oct-02 04:56N 01°07' E 103°36'0 0.0
2017-Oct-02 04:29N 01°07' E 103°36'0 0.0
2017-Oct-02 03:47N 01°07' E 103°36'0 0.2
2017-Oct-02 03:29N 01°07' E 103°36'0 0.0
2017-Oct-02 02:41N 01°07' E 103°36'0 0.0
2017-Oct-02 02:29N 01°07' E 103°36'0 0.0
2017-Oct-02 01:44N 01°07' E 103°36'0 0.0
2017-Oct-02 01:26N 01°07' E 103°36'0 0.0
2017-Oct-02 00:44N 01°07' E 103°36'0 0.0
2017-Oct-02 00:23N 01°07' E 103°36'0 0.0
2017-Oct-01 23:47N 01°07' E 103°36'0 0.2
2017-Oct-01 23:23N 01°07' E 103°36'0 0.0
2017-Oct-01 22:50N 01°07' E 103°36'0 0.2
2017-Oct-01 22:29N 01°07' E 103°36'0 0.2
2017-Oct-01 21:26N 01°07' E 103°36'0 0.1
2017-Oct-01 20:53N 01°07' E 103°36'0 0.1
2017-Oct-01 20:17N 01°07' E 103°36'0 0.0
2017-Oct-01 19:56N 01°07' E 103°36'0 0.0
2017-Oct-01 19:29N 01°07' E 103°36'0 0.0
2017-Oct-01 18:56N 01°07' E 103°36'0 0.0
2017-Oct-01 18:26N 01°07' E 103°36'0 0.1
2017-Oct-01 17:56N 01°07' E 103°36'0 0.0
2017-Oct-01 16:44N 01°07' E 103°36'0 0.0
2017-Oct-01 14:53N 01°07' E 103°36'0 0.1
2017-Oct-01 14:17N 01°07' E 103°36'0 0.1
2017-Oct-01 13:47N 01°07' E 103°36'0 0.1
2017-Oct-01 13:02N 01°07' E 103°36'0 0.0
2017-Oct-01 12:53N 01°07' E 103°36'0 0.0
2017-Oct-01 12:26N 01°07' E 103°36'0 0.0
2017-Oct-01 11:56N 01°07' E 103°36'0 0.0
2017-Oct-01 11:23N 01°07' E 103°36'0 0.0
2017-Oct-01 10:53N 01°07' E 103°36'0 0.0
2017-Oct-01 10:26N 01°07' E 103°36'0 0.0
2017-Oct-01 09:56N 01°07' E 103°36'0 0.1
2017-Oct-01 09:26N 01°07' E 103°36'0 0.1
2017-Oct-01 08:53N 01°07' E 103°36'0 0.0
2017-Oct-01 08:26N 01°07' E 103°36'0 0.0
2017-Oct-01 07:50N 01°07' E 103°36'0 0.0
2017-Oct-01 07:29N 01°07' E 103°36'0 0.0
2017-Oct-01 06:44N 01°07' E 103°36'0 0.1
2017-Oct-01 06:29N 01°07' E 103°36'0 0.1
2017-Oct-01 05:41N 01°07' E 103°36'0 0.1
2017-Oct-01 05:20N 01°07' E 103°36'0 0.2
2017-Oct-01 04:56N 01°07' E 103°36'0 0.2
2017-Oct-01 03:56N 01°07' E 103°36'0 0.0
2017-Oct-01 03:26N 01°07' E 103°36'0 0.0
2017-Oct-01 02:56N 01°07' E 103°36'2 0.1
2017-Sep-30 02:01N 01°07' E 103°37'3 6.2
2017-Sep-30 01:30N 01°10' E 103°38'2 4.6
2017-Sep-30 01:01N 01°09' E 103°40'1 1.7
2017-Sep-30 00:30N 01°10' E 103°40'1 1.4
2017-Sep-30 00:00N 01°10' E 103°39'0 0.2
2017-Sep-29 23:30N 01°10' E 103°39'1 2.8
2017-Sep-29 23:01N 01°11' E 103°40'2 3.3
2017-Sep-29 22:31N 01°11' E 103°42'0 0.1
2017-Sep-29 22:00N 01°11' E 103°42'0 0.0
2017-Sep-29 21:26N 01°11' E 103°42'0 0.0
2017-Sep-29 20:53N 01°11' E 103°42'0 0.0
2017-Sep-29 20:29N 01°11' E 103°42'0 0.0
2017-Sep-29 19:56N 01°11' E 103°42'0 0.0
2017-Sep-29 19:29N 01°11' E 103°42'0 0.0
2017-Sep-29 18:56N 01°11' E 103°42'0 0.0
2017-Sep-29 18:26N 01°11' E 103°42'0 0.0
2017-Sep-29 17:57N 01°11' E 103°42'0 0.1
2017-Sep-29 17:29N 01°11' E 103°42'0 0.0
2017-Sep-29 16:59N 01°11' E 103°42'0 0.0
2017-Sep-29 16:29N 01°11' E 103°42'0 0.1
2017-Sep-29 15:59N 01°11' E 103°42'0 0.2
2017-Sep-29 15:29N 01°11' E 103°42'0 0.0
2017-Sep-29 14:59N 01°11' E 103°42'0 0.0
2017-Sep-29 14:29N 01°11' E 103°42'0 0.1
2017-Sep-29 13:59N 01°11' E 103°42'0 0.2
2017-Sep-29 13:30N 01°11' E 103°42'0 0.1
2017-Sep-29 12:56N 01°11' E 103°42'0 0.0
2017-Sep-29 12:29N 01°11' E 103°42'0 0.0
2017-Sep-29 11:56N 01°11' E 103°42'0 0.0
2017-Sep-29 11:29N 01°11' E 103°42'0 0.0
2017-Sep-29 10:56N 01°11' E 103°42'0 0.0
2017-Sep-29 10:26N 01°11' E 103°42'0 0.0
2017-Sep-29 09:56N 01°11' E 103°42'0 0.0
2017-Sep-29 09:20N 01°11' E 103°42'0 0.0
2017-Sep-29 08:56N 01°11' E 103°42'0 0.0
2017-Sep-29 08:29N 01°11' E 103°42'0 0.0
2017-Sep-29 07:50N 01°11' E 103°42'0 0.0
2017-Sep-29 07:29N 01°11' E 103°42'0 0.0
2017-Sep-29 06:56N 01°11' E 103°42'0 0.0
2017-Sep-29 06:29N 01°11' E 103°42'0 0.0
2017-Sep-29 05:56N 01°11' E 103°42'0 0.0
2017-Sep-29 05:29N 01°11' E 103°42'0 0.1
2017-Sep-29 04:56N 01°11' E 103°42'0 0.0
2017-Sep-29 04:29N 01°11' E 103°42'0 0.1
2017-Sep-29 03:56N 01°11' E 103°42'0 0.2
2017-Sep-29 03:29N 01°11' E 103°42'0 0.2
2017-Sep-29 02:56N 01°11' E 103°42'0 0.0
2017-Sep-29 02:29N 01°11' E 103°42'0 0.0
2017-Sep-29 01:56N 01°11' E 103°42'0 0.2
2017-Sep-29 01:29N 01°11' E 103°42'0 0.1
2017-Sep-29 00:56N 01°11' E 103°42'0 0.5
2017-Sep-29 00:29N 01°11' E 103°42'0 0.2
2017-Sep-28 23:56N 01°11' E 103°42'0 0.2
2017-Sep-28 23:29N 01°11' E 103°42'0 0.2
2017-Sep-28 22:56N 01°11' E 103°42'0 0.1
2017-Sep-28 22:29N 01°11' E 103°42'0 0.0
2017-Sep-28 21:56N 01°11' E 103°42'0 0.0
2017-Sep-28 21:29N 01°11' E 103°42'0 0.0
2017-Sep-28 20:56N 01°11' E 103°42'0 0.1
2017-Sep-28 20:23N 01°11' E 103°42'0 0.0
2017-Sep-28 19:50N 01°11' E 103°42'0 0.0
2017-Sep-28 19:29N 01°11' E 103°42'0 0.1
2017-Sep-28 18:59N 01°11' E 103°42'0 0.1
2017-Sep-28 18:29N 01°11' E 103°42'0 0.0
2017-Sep-28 17:56N 01°11' E 103°42'0 0.0
2017-Sep-28 17:29N 01°11' E 103°42'0 0.0
2017-Sep-28 16:56N 01°11' E 103°42'0 0.0
2017-Sep-28 16:29N 01°11' E 103°42'0 0.1
2017-Sep-28 15:56N 01°11' E 103°42'0 0.0
2017-Sep-28 15:23N 01°11' E 103°42'0 0.0
2017-Sep-28 15:00N 01°11' E 103°42'0 0.0
2017-Sep-28 14:29N 01°11' E 103°42'0 0.0
2017-Sep-28 13:50N 01°11' E 103°42'0 0.0
2017-Sep-28 13:29N 01°11' E 103°42'0 0.0
2017-Sep-28 12:56N 01°11' E 103°42'0 0.0
2017-Sep-28 12:26N 01°11' E 103°42'0 0.0
2017-Sep-28 11:56N 01°11' E 103°42'0 0.0
2017-Sep-28 11:29N 01°11' E 103°42'0 0.0
2017-Sep-28 10:56N 01°11' E 103°42'0 0.1
2017-Sep-28 10:26N 01°11' E 103°42'0 0.0
2017-Sep-28 09:56N 01°11' E 103°42'0 0.0
2017-Sep-28 09:29N 01°11' E 103°42'0 0.0
2017-Sep-28 08:56N 01°11' E 103°42'0 0.1
2017-Sep-28 08:29N 01°11' E 103°42'0 0.1
2017-Sep-28 07:56N 01°11' E 103°42'0 0.0
2017-Sep-28 07:26N 01°11' E 103°42'0 0.0
2017-Sep-28 06:56N 01°11' E 103°42'0 0.0
2017-Sep-28 06:29N 01°11' E 103°42'0 0.1
2017-Sep-28 05:56N 01°11' E 103°42'0 0.0
2017-Sep-28 05:29N 01°11' E 103°42'0 0.3
2017-Sep-28 04:56N 01°11' E 103°42'0 0.3
2017-Sep-28 04:26N 01°11' E 103°42'0 0.5
2017-Sep-28 04:00N 01°11' E 103°42'3 5.8
2017-Sep-28 03:30N 01°13' E 103°40'2 4.1
2017-Sep-28 03:00N 01°15' E 103°39'0 0.2
2017-Sep-28 02:30N 01°15' E 103°39'0 0.0
2017-Sep-28 02:00N 01°15' E 103°39'0 0.0
2017-Sep-28 01:25N 01°15' E 103°39'0 0.0
2017-Sep-28 00:55N 01°15' E 103°39'0 0.0
2017-Sep-28 00:28N 01°15' E 103°39'0 0.0
2017-Sep-27 23:58N 01°15' E 103°39'0 0.0
2017-Sep-27 23:28N 01°15' E 103°39'0 0.0
2017-Sep-27 22:55N 01°15' E 103°39'0 0.0
2017-Sep-27 22:28N 01°15' E 103°39'0 0.0
2017-Sep-27 21:55N 01°15' E 103°39'0 0.0
2017-Sep-27 21:28N 01°15' E 103°39'0 0.0
2017-Sep-27 20:58N 01°15' E 103°39'0 0.0
2017-Sep-27 20:22N 01°15' E 103°39'0 0.0
2017-Sep-27 19:58N 01°15' E 103°39'0 0.0
2017-Sep-27 19:28N 01°15' E 103°39'0 0.0
2017-Sep-27 18:55N 01°15' E 103°39'0 0.0
2017-Sep-27 18:28N 01°15' E 103°39'0 0.0
2017-Sep-27 17:52N 01°15' E 103°39'0 0.0
2017-Sep-27 17:28N 01°15' E 103°39'0 0.0
2017-Sep-27 16:58N 01°15' E 103°39'0 0.0
2017-Sep-27 16:28N 01°15' E 103°39'0 0.0
2017-Sep-27 15:58N 01°15' E 103°39'0 0.0
2017-Sep-27 15:25N 01°15' E 103°39'4 6.1
2017-Sep-27 14:50N 01°12' E 103°40'4 8.7
2017-Sep-27 14:25N 01°15' E 103°39'0 0.0
2017-Sep-27 13:55N 01°15' E 103°39'0 0.0
2017-Sep-27 13:28N 01°15' E 103°39'0 0.0
2017-Sep-27 12:55N 01°15' E 103°39'813.3
2017-Sep-27 12:18N 01°10' E 103°46'1 3.2
2017-Sep-27 11:58N 01°10' E 103°46'2 3.3
2017-Sep-27 11:29N 01°11' E 103°48'1016.9
2017-Sep-27 10:55N 01°15' E 103°39'0 0.0
2017-Sep-27 10:28N 01°15' E 103°39'0 0.0
2017-Sep-27 09:52N 01°15' E 103°39'0 0.0
2017-Sep-27 09:25N 01°15' E 103°39'0 0.0
2017-Sep-27 08:58N 01°15' E 103°39'0 0.0
2017-Sep-27 08:22N 01°15' E 103°39'0 0.0
2017-Sep-27 07:49N 01°15' E 103°39'0 0.0
2017-Sep-27 07:25N 01°15' E 103°39'0 0.0
2017-Sep-27 06:49N 01°15' E 103°39'0 0.0
2017-Sep-27 06:28N 01°15' E 103°39'0 0.0
2017-Sep-27 05:58N 01°15' E 103°39'0 0.0
2017-Sep-27 05:25N 01°15' E 103°39'0 0.0
2017-Sep-27 04:58N 01°15' E 103°39'0 0.0
2017-Sep-27 04:25N 01°15' E 103°39'0 0.3
2017-Sep-27 04:01N 01°15' E 103°39'3 6.9
2017-Sep-27 03:30N 01°12' E 103°40'510.7
2017-Sep-27 03:01N 01°09' E 103°44'713.2
2017-Sep-27 02:30N 01°12' E 103°50'511.0
2017-Sep-27 02:00N 01°14' E 103°55'0 0.7
2017-Sep-27 01:28N 01°15' E 103°55'0 0.4
2017-Sep-27 00:56N 01°15' E 103°55'0 0.5
2017-Sep-27 00:25N 01°15' E 103°55'0 0.5
2017-Sep-26 23:56N 01°15' E 103°55'0 0.4
2017-Sep-26 23:28N 01°15' E 103°55'0 0.1
2017-Sep-26 22:55N 01°15' E 103°55'0 0.1
2017-Sep-26 22:25N 01°15' E 103°55'0 0.1
2017-Sep-26 21:43N 01°15' E 103°55'0 0.1
2017-Sep-26 21:27N 01°15' E 103°55'0 0.0
2017-Sep-26 21:00N 01°15' E 103°55'0 0.1
2017-Sep-26 20:25N 01°15' E 103°55'0 0.1
2017-Sep-26 19:58N 01°15' E 103°55'0 0.0
2017-Sep-26 19:28N 01°15' E 103°55'0 0.2
2017-Sep-26 19:00N 01°15' E 103°55'0 0.1
2017-Sep-26 18:22N 01°15' E 103°55'0 0.0
2017-Sep-26 17:58N 01°15' E 103°55'0 0.1
2017-Sep-26 17:28N 01°15' E 103°55'0 0.3
2017-Sep-26 16:38N 01°15' E 103°55'0 1.8
2017-Sep-26 16:28N 01°15' E 103°55'0 0.0
2017-Sep-26 15:58N 01°15' E 103°55'0 0.6
2017-Sep-26 15:28N 01°15' E 103°55'0 0.6
2017-Sep-26 14:58N 01°15' E 103°55'0 0.6
2017-Sep-26 14:27N 01°15' E 103°55'0 0.0
2017-Sep-26 13:58N 01°15' E 103°55'0 0.5
2017-Sep-26 13:25N 01°15' E 103°55'0 0.6
2017-Sep-26 12:59N 01°15' E 103°55'0 0.0
2017-Sep-26 12:22N 01°15' E 103°55'0 0.7
2017-Sep-26 11:58N 01°15' E 103°55'0 0.0
2017-Sep-26 11:25N 01°15' E 103°55'0 0.0
2017-Sep-26 10:58N 01°15' E 103°55'0 0.0
2017-Sep-26 10:25N 01°15' E 103°55'0 0.0
2017-Sep-26 09:52N 01°15' E 103°55'0 0.0
2017-Sep-26 09:28N 01°15' E 103°55'0 0.0
2017-Sep-26 08:52N 01°15' E 103°55'0 0.1
2017-Sep-26 08:28N 01°15' E 103°55'0 0.1
2017-Sep-26 07:55N 01°15' E 103°55'0 0.1
2017-Sep-26 07:30N 01°15' E 103°55'0 0.4
2017-Sep-26 06:58N 01°15' E 103°55'0 0.1
2017-Sep-26 06:25N 01°15' E 103°55'0 0.1
2017-Sep-26 05:58N 01°15' E 103°55'0 0.0
2017-Sep-26 05:28N 01°15' E 103°55'0 0.0
2017-Sep-26 04:55N 01°15' E 103°55'0 0.0
2017-Sep-26 04:28N 01°15' E 103°55'0 0.0
2017-Sep-26 03:55N 01°15' E 103°55'0 0.0
2017-Sep-26 03:25N 01°15' E 103°55'0 0.5
2017-Sep-26 03:00N 01°15' E 103°55'0 0.4
2017-Sep-26 02:25N 01°15' E 103°55'0 0.6
2017-Sep-26 02:00N 01°15' E 103°55'0 0.4
2017-Sep-26 01:25N 01°15' E 103°55'0 0.6
2017-Sep-26 01:00N 01°15' E 103°55'0 0.4
2017-Sep-26 00:25N 01°15' E 103°55'0 0.0
2017-Sep-25 23:52N 01°15' E 103°55'0 0.1
2017-Sep-25 23:07N 01°15' E 103°55'0 0.4
2017-Sep-25 22:48N 01°15' E 103°55'0 0.0
2017-Sep-25 22:26N 01°15' E 103°55'0 0.0
2017-Sep-25 21:52N 01°15' E 103°55'0 0.0
2017-Sep-25 21:25N 01°15' E 103°55'0 0.0
2017-Sep-25 20:49N 01°15' E 103°55'0 0.1
2017-Sep-25 20:22N 01°15' E 103°55'0 0.1
2017-Sep-25 19:55N 01°15' E 103°55'0 0.1
2017-Sep-25 19:28N 01°15' E 103°55'0 0.0
2017-Sep-25 18:55N 01°15' E 103°55'0 0.3
2017-Sep-25 18:28N 01°15' E 103°55'0 0.3
2017-Sep-25 17:58N 01°15' E 103°55'0 0.0
2017-Sep-25 17:22N 01°15' E 103°55'0 0.0
2017-Sep-25 16:55N 01°15' E 103°55'0 0.3
2017-Sep-25 16:22N 01°15' E 103°55'0 0.4
2017-Sep-25 15:58N 01°15' E 103°55'0 0.1
2017-Sep-25 15:22N 01°15' E 103°55'0 0.0
2017-Sep-25 14:49N 01°15' E 103°55'0 0.4
2017-Sep-25 14:20N 01°15' E 103°55'0 0.5
2017-Sep-25 13:55N 01°15' E 103°55'0 0.0
2017-Sep-25 13:25N 01°15' E 103°55'0 0.0
2017-Sep-25 12:55N 01°15' E 103°55'0 0.0
2017-Sep-25 12:25N 01°15' E 103°55'0 0.1
2017-Sep-25 11:55N 01°15' E 103°55'0 0.1
2017-Sep-25 11:13N 01°15' E 103°55'0 0.0
2017-Sep-25 10:55N 01°15' E 103°55'0 0.1
2017-Sep-25 10:28N 01°15' E 103°55'0 0.0
2017-Sep-25 09:58N 01°15' E 103°55'0 0.3
2017-Sep-25 09:30N 01°15' E 103°55'0 0.2
2017-Sep-25 08:55N 01°15' E 103°55'0 0.0
2017-Sep-25 08:28N 01°15' E 103°55'0 0.0
2017-Sep-25 07:58N 01°15' E 103°55'0 0.3
2017-Sep-25 07:30N 01°15' E 103°55'0 0.2
2017-Sep-25 06:58N 01°15' E 103°55'0 0.1
2017-Sep-25 06:25N 01°15' E 103°55'0 0.2
2017-Sep-25 06:00N 01°15' E 103°55'0 0.1
2017-Sep-25 05:26N 01°15' E 103°55'0 0.0
2017-Sep-25 04:58N 01°15' E 103°55'0 0.0
2017-Sep-25 04:30N 01°15' E 103°55'0 0.4
2017-Sep-25 03:58N 01°15' E 103°55'0 0.0
2017-Sep-25 03:22N 01°15' E 103°55'0 0.1
2017-Sep-25 02:43N 01°15' E 103°55'0 0.7
2017-Sep-25 02:29N 01°15' E 103°55'0 0.3
2017-Sep-25 01:55N 01°15' E 103°55'0 0.0
2017-Sep-25 01:25N 01°15' E 103°55'0 0.3
2017-Sep-25 00:41N 01°15' E 103°55'0 0.0
2017-Sep-25 00:30N 01°15' E 103°55'0 0.0
2017-Sep-24 23:54N 01°15' E 103°55'0 0.3
2017-Sep-24 23:28N 01°15' E 103°55'0 0.2
2017-Sep-24 22:57N 01°15' E 103°55'0 0.0
2017-Sep-24 22:09N 01°15' E 103°55'0 0.0
2017-Sep-24 21:17N 01°15' E 103°55'0 0.1
2017-Sep-24 20:15N 01°15' E 103°55'0 0.0
2017-Sep-24 19:48N 01°15' E 103°55'0 0.2
2017-Sep-24 19:07N 01°15' E 103°55'0 0.5
2017-Sep-24 18:52N 01°15' E 103°55'0 0.3
2017-Sep-24 18:19N 01°15' E 103°55'0 0.4
2017-Sep-24 17:57N 01°15' E 103°55'0 0.3
2017-Sep-24 17:28N 01°15' E 103°55'0 0.3
2017-Sep-24 17:00N 01°15' E 103°55'0 0.0
2017-Sep-24 16:19N 01°15' E 103°55'0 0.0
2017-Sep-24 15:53N 01°15' E 103°55'0 0.0
2017-Sep-24 15:27N 01°15' E 103°55'0 0.3
2017-Sep-24 14:55N 01°15' E 103°55'0 0.3
2017-Sep-24 14:17N 01°15' E 103°55'0 0.0
2017-Sep-24 13:47N 01°15' E 103°55'0 0.0
2017-Sep-24 13:18N 01°15' E 103°55'0 0.0
2017-Sep-24 12:49N 01°15' E 103°55'0 0.2
2017-Sep-24 12:25N 01°15' E 103°55'0 0.0
2017-Sep-24 11:49N 01°15' E 103°55'0 0.1
2017-Sep-24 11:19N 01°15' E 103°55'0 0.0
2017-Sep-24 10:49N 01°15' E 103°55'0 0.4
2017-Sep-24 10:21N 01°15' E 103°55'0 0.0
2017-Sep-24 09:54N 01°15' E 103°55'0 0.0
2017-Sep-24 09:25N 01°15' E 103°55'0 0.0
2017-Sep-24 08:57N 01°15' E 103°55'0 0.2
2017-Sep-24 08:10N 01°15' E 103°55'0 1.1
2017-Sep-24 08:00N 01°15' E 103°55'0 0.3
2017-Sep-24 07:28N 01°15' E 103°55'0 0.3
2017-Sep-24 06:50N 01°15' E 103°55'0 0.0
2017-Sep-24 06:22N 01°15' E 103°55'0 0.0
2017-Sep-24 05:55N 01°15' E 103°55'0 0.4
2017-Sep-24 05:25N 01°15' E 103°55'0 0.0
2017-Sep-24 04:58N 01°15' E 103°55'0 0.2
2017-Sep-24 04:22N 01°15' E 103°55'0 0.1
2017-Sep-24 03:58N 01°15' E 103°55'0 0.0
2017-Sep-24 03:29N 01°15' E 103°55'0 0.1
2017-Sep-24 02:52N 01°15' E 103°55'0 0.0
2017-Sep-24 02:22N 01°15' E 103°55'0 0.0
2017-Sep-24 01:58N 01°15' E 103°55'0 0.1
2017-Sep-24 01:28N 01°15' E 103°55'0 0.1
2017-Sep-24 00:55N 01°15' E 103°55'0 0.1
2017-Sep-24 00:28N 01°15' E 103°55'0 0.0
2017-Sep-23 23:52N 01°15' E 103°55'0 0.2
2017-Sep-23 23:28N 01°15' E 103°55'0 0.0
2017-Sep-23 22:58N 01°15' E 103°55'0 0.0
2017-Sep-23 22:25N 01°15' E 103°55'0 0.0
2017-Sep-23 21:55N 01°15' E 103°55'0 0.0
2017-Sep-23 21:28N 01°15' E 103°55'0 0.1
2017-Sep-23 20:56N 01°15' E 103°55'0 0.1
2017-Sep-23 19:55N 01°15' E 103°55'  
Track history (hours):
 
Tides and Currents Weather Stations Pressure Air Temp Water Temp Dewpoint Dewpoint Depression Visibility Wind Speed Wind Dir Waves Ship Positions

Caribbean Galaxy

Last reported at 2017-Oct-02 22:15 UTC. Time now 2017-Oct-20 20:09 UTC.
Position N 01°15' E 104°07'.
Warning: this ship's position is 17 days out of date.

Length 245 m; draft 11.9 m.

Type: Ship (hazmat cat A). MMSI: 357449000.

Date/timePositionNaut miles runAvg speedWind from/ knotsBaromVisibWave heightAir tempDewpointWater temp
2017-Oct-02 22:15N 01°15' E 104°07'1 1.9
2017-Oct-02 21:58N 01°15' E 104°06'1 2.3
2017-Oct-02 21:30N 01°15' E 104°05'1 2.3
2017-Oct-02 21:00N 01°14' E 104°04'1 2.3
2017-Oct-02 20:30N 01°14' E 104°03'1 2.3
2017-Oct-02 19:57N 01°14' E 104°01'1 2.3
2017-Oct-02 19:29N 01°14' E 104°00'1 2.5
2017-Oct-02 19:00N 01°14' E 103°59'1 2.3
2017-Oct-02 18:31N 01°14' E 103°58'1 2.3
2017-Oct-02 18:00N 01°13' E 103°57'8 1.1
2017-Oct-02 10:10N 01°15' E 104°05'2 9.8
2017-Oct-02 10:00N 01°14' E 104°04'510.0
2017-Oct-02 09:30N 01°14' E 103°59'510.2
2017-Oct-02 09:01N 01°12' E 103°54'4 9.0
2017-Oct-02 08:31N 01°10' E 103°50'4 8.9
2017-Oct-02 08:00N 01°08' E 103°46'5 9.6
2017-Oct-02 07:31N 01°05' E 103°43'5 9.2
2017-Oct-02 07:00N 01°03' E 103°39'4 7.9
2017-Oct-02 06:30N 01°06' E 103°36'1 2.0
2017-Oct-02 06:01N 01°07' E 103°36'0 0.7
2017-Oct-02 05:30N 01°07' E 103°36'0 0.1
2017-Oct-02 04:56N 01°07' E 103°36'0 0.0
2017-Oct-02 04:29N 01°07' E 103°36'0 0.0
2017-Oct-02 03:47N 01°07' E 103°36'0 0.2
2017-Oct-02 03:29N 01°07' E 103°36'0 0.0
2017-Oct-02 02:41N 01°07' E 103°36'0 0.0
2017-Oct-02 02:29N 01°07' E 103°36'0 0.0
2017-Oct-02 01:44N 01°07' E 103°36'0 0.0
2017-Oct-02 01:26N 01°07' E 103°36'0 0.0
2017-Oct-02 00:44N 01°07' E 103°36'0 0.0
2017-Oct-02 00:23N 01°07' E 103°36'0 0.0
2017-Oct-01 23:47N 01°07' E 103°36'0 0.2
2017-Oct-01 23:23N 01°07' E 103°36'0 0.0
2017-Oct-01 22:50N 01°07' E 103°36'0 0.2
2017-Oct-01 22:29N 01°07' E 103°36'0 0.2
2017-Oct-01 21:26N 01°07' E 103°36'0 0.1
2017-Oct-01 20:53N 01°07' E 103°36'0 0.1
2017-Oct-01 20:17N 01°07' E 103°36'0 0.0
2017-Oct-01 19:56N 01°07' E 103°36'0 0.0
2017-Oct-01 19:29N 01°07' E 103°36'0 0.0
2017-Oct-01 18:56N 01°07' E 103°36'0 0.0
2017-Oct-01 18:26N 01°07' E 103°36'0 0.1
2017-Oct-01 17:56N 01°07' E 103°36'0 0.0
2017-Oct-01 16:44N 01°07' E 103°36'0 0.0
2017-Oct-01 14:53N 01°07' E 103°36'0 0.1
2017-Oct-01 14:17N 01°07' E 103°36'0 0.1
2017-Oct-01 13:47N 01°07' E 103°36'0 0.1
2017-Oct-01 13:02N 01°07' E 103°36'0 0.0
2017-Oct-01 12:53N 01°07' E 103°36'0 0.0
2017-Oct-01 12:26N 01°07' E 103°36'0 0.0
2017-Oct-01 11:56N 01°07' E 103°36'0 0.0
2017-Oct-01 11:23N 01°07' E 103°36'0 0.0
2017-Oct-01 10:53N 01°07' E 103°36'0 0.0
2017-Oct-01 10:26N 01°07' E 103°36'0 0.0
2017-Oct-01 09:56N 01°07' E 103°36'0 0.1
2017-Oct-01 09:26N 01°07' E 103°36'0 0.1
2017-Oct-01 08:53N 01°07' E 103°36'0 0.0
2017-Oct-01 08:26N 01°07' E 103°36'0 0.0
2017-Oct-01 07:50N 01°07' E 103°36'0 0.0
2017-Oct-01 07:29N 01°07' E 103°36'0 0.0
2017-Oct-01 06:44N 01°07' E 103°36'0 0.1
2017-Oct-01 06:29N 01°07' E 103°36'0 0.1
2017-Oct-01 05:41N 01°07' E 103°36'0 0.1
2017-Oct-01 05:20N 01°07' E 103°36'0 0.2
2017-Oct-01 04:56N 01°07' E 103°36'0 0.2
2017-Oct-01 03:56N 01°07' E 103°36'0 0.0
2017-Oct-01 03:26N 01°07' E 103°36'0 0.0
2017-Oct-01 02:56N 01°07' E 103°36'2 0.1
2017-Sep-30 02:01N 01°07' E 103°37'3 6.2
2017-Sep-30 01:30N 01°10' E 103°38'2 4.6
2017-Sep-30 01:01N 01°09' E 103°40'1 1.7
2017-Sep-30 00:30N 01°10' E 103°40'1 1.4
2017-Sep-30 00:00N 01°10' E 103°39'0 0.2
2017-Sep-29 23:30N 01°10' E 103°39'1 2.8
2017-Sep-29 23:01N 01°11' E 103°40'2 3.3
2017-Sep-29 22:31N 01°11' E 103°42'0 0.1
2017-Sep-29 22:00N 01°11' E 103°42'0 0.0
2017-Sep-29 21:26N 01°11' E 103°42'0 0.0
2017-Sep-29 20:53N 01°11' E 103°42'0 0.0
2017-Sep-29 20:29N 01°11' E 103°42'0 0.0
2017-Sep-29 19:56N 01°11' E 103°42'0 0.0
2017-Sep-29 19:29N 01°11' E 103°42'0 0.0
2017-Sep-29 18:56N 01°11' E 103°42'0 0.0
2017-Sep-29 18:26N 01°11' E 103°42'0 0.0
2017-Sep-29 17:57N 01°11' E 103°42'0 0.1
2017-Sep-29 17:29N 01°11' E 103°42'0 0.0
2017-Sep-29 16:59N 01°11' E 103°42'0 0.0
2017-Sep-29 16:29N 01°11' E 103°42'0 0.1
2017-Sep-29 15:59N 01°11' E 103°42'0 0.2
2017-Sep-29 15:29N 01°11' E 103°42'0 0.0
2017-Sep-29 14:59N 01°11' E 103°42'0 0.0
2017-Sep-29 14:29N 01°11' E 103°42'0 0.1
2017-Sep-29 13:59N 01°11' E 103°42'0 0.2
2017-Sep-29 13:30N 01°11' E 103°42'0 0.1
2017-Sep-29 12:56N 01°11' E 103°42'0 0.0
2017-Sep-29 12:29N 01°11' E 103°42'0 0.0
2017-Sep-29 11:56N 01°11' E 103°42'0 0.0
2017-Sep-29 11:29N 01°11' E 103°42'0 0.0
2017-Sep-29 10:56N 01°11' E 103°42'0 0.0
2017-Sep-29 10:26N 01°11' E 103°42'0 0.0
2017-Sep-29 09:56N 01°11' E 103°42'0 0.0
2017-Sep-29 09:20N 01°11' E 103°42'0 0.0
2017-Sep-29 08:56N 01°11' E 103°42'0 0.0
2017-Sep-29 08:29N 01°11' E 103°42'0 0.0
2017-Sep-29 07:50N 01°11' E 103°42'0 0.0
2017-Sep-29 07:29N 01°11' E 103°42'0 0.0
2017-Sep-29 06:56N 01°11' E 103°42'0 0.0
2017-Sep-29 06:29N 01°11' E 103°42'0 0.0
2017-Sep-29 05:56N 01°11' E 103°42'0 0.0
2017-Sep-29 05:29N 01°11' E 103°42'0 0.1
2017-Sep-29 04:56N 01°11' E 103°42'0 0.0
2017-Sep-29 04:29N 01°11' E 103°42'0 0.1
2017-Sep-29 03:56N 01°11' E 103°42'0 0.2
2017-Sep-29 03:29N 01°11' E 103°42'0 0.2
2017-Sep-29 02:56N 01°11' E 103°42'0 0.0
2017-Sep-29 02:29N 01°11' E 103°42'0 0.0
2017-Sep-29 01:56N 01°11' E 103°42'0 0.2
2017-Sep-29 01:29N 01°11' E 103°42'0 0.1
2017-Sep-29 00:56N 01°11' E 103°42'0 0.5
2017-Sep-29 00:29N 01°11' E 103°42'0 0.2
2017-Sep-28 23:56N 01°11' E 103°42'0 0.2
2017-Sep-28 23:29N 01°11' E 103°42'0 0.2
2017-Sep-28 22:56N 01°11' E 103°42'0 0.1
2017-Sep-28 22:29N 01°11' E 103°42'0 0.0
2017-Sep-28 21:56N 01°11' E 103°42'0 0.0
2017-Sep-28 21:29N 01°11' E 103°42'0 0.0
2017-Sep-28 20:56N 01°11' E 103°42'0 0.1
2017-Sep-28 20:23N 01°11' E 103°42'0 0.0
2017-Sep-28 19:50N 01°11' E 103°42'0 0.0
2017-Sep-28 19:29N 01°11' E 103°42'0 0.1
2017-Sep-28 18:59N 01°11' E 103°42'0 0.1
2017-Sep-28 18:29N 01°11' E 103°42'0 0.0
2017-Sep-28 17:56N 01°11' E 103°42'0 0.0
2017-Sep-28 17:29N 01°11' E 103°42'0 0.0
2017-Sep-28 16:56N 01°11' E 103°42'0 0.0
2017-Sep-28 16:29N 01°11' E 103°42'0 0.1
2017-Sep-28 15:56N 01°11' E 103°42'0 0.0
2017-Sep-28 15:23N 01°11' E 103°42'0 0.0
2017-Sep-28 15:00N 01°11' E 103°42'0 0.0
2017-Sep-28 14:29N 01°11' E 103°42'0 0.0
2017-Sep-28 13:50N 01°11' E 103°42'0 0.0
2017-Sep-28 13:29N 01°11' E 103°42'0 0.0
2017-Sep-28 12:56N 01°11' E 103°42'0 0.0
2017-Sep-28 12:26N 01°11' E 103°42'0 0.0
2017-Sep-28 11:56N 01°11' E 103°42'0 0.0
2017-Sep-28 11:29N 01°11' E 103°42'0 0.0
2017-Sep-28 10:56N 01°11' E 103°42'0 0.1
2017-Sep-28 10:26N 01°11' E 103°42'0 0.0
2017-Sep-28 09:56N 01°11' E 103°42'0 0.0
2017-Sep-28 09:29N 01°11' E 103°42'0 0.0
2017-Sep-28 08:56N 01°11' E 103°42'0 0.1
2017-Sep-28 08:29N 01°11' E 103°42'0 0.1
2017-Sep-28 07:56N 01°11' E 103°42'0 0.0
2017-Sep-28 07:26N 01°11' E 103°42'0 0.0
2017-Sep-28 06:56N 01°11' E 103°42'0 0.0
2017-Sep-28 06:29N 01°11' E 103°42'0 0.1
2017-Sep-28 05:56N 01°11' E 103°42'0 0.0
2017-Sep-28 05:29N 01°11' E 103°42'0 0.3
2017-Sep-28 04:56N 01°11' E 103°42'0 0.3
2017-Sep-28 04:26N 01°11' E 103°42'0 0.5
2017-Sep-28 04:00N 01°11' E 103°42'3 5.8
2017-Sep-28 03:30N 01°13' E 103°40'2 4.1
2017-Sep-28 03:00N 01°15' E 103°39'0 0.2
2017-Sep-28 02:30N 01°15' E 103°39'0 0.0
2017-Sep-28 02:00N 01°15' E 103°39'0 0.0
2017-Sep-28 01:25N 01°15' E 103°39'0 0.0
2017-Sep-28 00:55N 01°15' E 103°39'0 0.0
2017-Sep-28 00:28N 01°15' E 103°39'0 0.0
2017-Sep-27 23:58N 01°15' E 103°39'0 0.0
2017-Sep-27 23:28N 01°15' E 103°39'0 0.0
2017-Sep-27 22:55N 01°15' E 103°39'0 0.0
2017-Sep-27 22:28N 01°15' E 103°39'0 0.0
2017-Sep-27 21:55N 01°15' E 103°39'0 0.0
2017-Sep-27 21:28N 01°15' E 103°39'0 0.0
2017-Sep-27 20:58N 01°15' E 103°39'0 0.0
2017-Sep-27 20:22N 01°15' E 103°39'0 0.0
2017-Sep-27 19:58N 01°15' E 103°39'0 0.0
2017-Sep-27 19:28N 01°15' E 103°39'0 0.0
2017-Sep-27 18:55N 01°15' E 103°39'0 0.0
2017-Sep-27 18:28N 01°15' E 103°39'0 0.0
2017-Sep-27 17:52N 01°15' E 103°39'0 0.0
2017-Sep-27 17:28N 01°15' E 103°39'0 0.0
2017-Sep-27 16:58N 01°15' E 103°39'0 0.0
2017-Sep-27 16:28N 01°15' E 103°39'0 0.0
2017-Sep-27 15:58N 01°15' E 103°39'0 0.0
2017-Sep-27 15:25N 01°15' E 103°39'4 6.1
2017-Sep-27 14:50N 01°12' E 103°40'4 8.7
2017-Sep-27 14:25N 01°15' E 103°39'0 0.0
2017-Sep-27 13:55N 01°15' E 103°39'0 0.0
2017-Sep-27 13:28N 01°15' E 103°39'0 0.0
2017-Sep-27 12:55N 01°15' E 103°39'813.3
2017-Sep-27 12:18N 01°10' E 103°46'1 3.2
2017-Sep-27 11:58N 01°10' E 103°46'2 3.3
2017-Sep-27 11:29N 01°11' E 103°48'1016.9
2017-Sep-27 10:55N 01°15' E 103°39'0 0.0
2017-Sep-27 10:28N 01°15' E 103°39'0 0.0
2017-Sep-27 09:52N 01°15' E 103°39'0 0.0
2017-Sep-27 09:25N 01°15' E 103°39'0 0.0
2017-Sep-27 08:58N 01°15' E 103°39'0 0.0
2017-Sep-27 08:22N 01°15' E 103°39'0 0.0
2017-Sep-27 07:49N 01°15' E 103°39'0 0.0
2017-Sep-27 07:25N 01°15' E 103°39'0 0.0
2017-Sep-27 06:49N 01°15' E 103°39'0 0.0
2017-Sep-27 06:28N 01°15' E 103°39'0 0.0
2017-Sep-27 05:58N 01°15' E 103°39'0 0.0
2017-Sep-27 05:25N 01°15' E 103°39'0 0.0
2017-Sep-27 04:58N 01°15' E 103°39'0 0.0
2017-Sep-27 04:25N 01°15' E 103°39'0 0.3
2017-Sep-27 04:01N 01°15' E 103°39'3 6.9
2017-Sep-27 03:30N 01°12' E 103°40'510.7
2017-Sep-27 03:01N 01°09' E 103°44'713.2
2017-Sep-27 02:30N 01°12' E 103°50'511.0
2017-Sep-27 02:00N 01°14' E 103°55'0 0.7
2017-Sep-27 01:28N 01°15' E 103°55'0 0.4
2017-Sep-27 00:56N 01°15' E 103°55'0 0.5
2017-Sep-27 00:25N 01°15' E 103°55'0 0.5
2017-Sep-26 23:56N 01°15' E 103°55'0 0.4
2017-Sep-26 23:28N 01°15' E 103°55'0 0.1
2017-Sep-26 22:55N 01°15' E 103°55'0 0.1
2017-Sep-26 22:25N 01°15' E 103°55'0 0.1
2017-Sep-26 21:43N 01°15' E 103°55'0 0.1
2017-Sep-26 21:27N 01°15' E 103°55'0 0.0
2017-Sep-26 21:00N 01°15' E 103°55'0 0.1
2017-Sep-26 20:25N 01°15' E 103°55'0 0.1
2017-Sep-26 19:58N 01°15' E 103°55'0 0.0
2017-Sep-26 19:28N 01°15' E 103°55'0 0.2
2017-Sep-26 19:00N 01°15' E 103°55'0 0.1
2017-Sep-26 18:22N 01°15' E 103°55'0 0.0
2017-Sep-26 17:58N 01°15' E 103°55'0 0.1
2017-Sep-26 17:28N 01°15' E 103°55'0 0.3
2017-Sep-26 16:38N 01°15' E 103°55'0 1.8
2017-Sep-26 16:28N 01°15' E 103°55'0 0.0
2017-Sep-26 15:58N 01°15' E 103°55'0 0.6
2017-Sep-26 15:28N 01°15' E 103°55'0 0.6
2017-Sep-26 14:58N 01°15' E 103°55'0 0.6
2017-Sep-26 14:27N 01°15' E 103°55'0 0.0
2017-Sep-26 13:58N 01°15' E 103°55'0 0.5
2017-Sep-26 13:25N 01°15' E 103°55'0 0.6
2017-Sep-26 12:59N 01°15' E 103°55'0 0.0
2017-Sep-26 12:22N 01°15' E 103°55'0 0.7
2017-Sep-26 11:58N 01°15' E 103°55'0 0.0
2017-Sep-26 11:25N 01°15' E 103°55'0 0.0
2017-Sep-26 10:58N 01°15' E 103°55'0 0.0
2017-Sep-26 10:25N 01°15' E 103°55'0 0.0
2017-Sep-26 09:52N 01°15' E 103°55'0 0.0
2017-Sep-26 09:28N 01°15' E 103°55'0 0.0
2017-Sep-26 08:52N 01°15' E 103°55'0 0.1
2017-Sep-26 08:28N 01°15' E 103°55'0 0.1
2017-Sep-26 07:55N 01°15' E 103°55'0 0.1
2017-Sep-26 07:30N 01°15' E 103°55'0 0.4
2017-Sep-26 06:58N 01°15' E 103°55'0 0.1
2017-Sep-26 06:25N 01°15' E 103°55'0 0.1
2017-Sep-26 05:58N 01°15' E 103°55'0 0.0
2017-Sep-26 05:28N 01°15' E 103°55'0 0.0
2017-Sep-26 04:55N 01°15' E 103°55'0 0.0
2017-Sep-26 04:28N 01°15' E 103°55'0 0.0
2017-Sep-26 03:55N 01°15' E 103°55'0 0.0
2017-Sep-26 03:25N 01°15' E 103°55'0 0.5
2017-Sep-26 03:00N 01°15' E 103°55'0 0.4
2017-Sep-26 02:25N 01°15' E 103°55'0 0.6
2017-Sep-26 02:00N 01°15' E 103°55'0 0.4
2017-Sep-26 01:25N 01°15' E 103°55'0 0.6
2017-Sep-26 01:00N 01°15' E 103°55'0 0.4
2017-Sep-26 00:25N 01°15' E 103°55'0 0.0
2017-Sep-25 23:52N 01°15' E 103°55'0 0.1
2017-Sep-25 23:07N 01°15' E 103°55'0 0.4
2017-Sep-25 22:48N 01°15' E 103°55'0 0.0
2017-Sep-25 22:26N 01°15' E 103°55'0 0.0
2017-Sep-25 21:52N 01°15' E 103°55'0 0.0
2017-Sep-25 21:25N 01°15' E 103°55'0 0.0
2017-Sep-25 20:49N 01°15' E 103°55'0 0.1
2017-Sep-25 20:22N 01°15' E 103°55'0 0.1
2017-Sep-25 19:55N 01°15' E 103°55'0 0.1
2017-Sep-25 19:28N 01°15' E 103°55'0 0.0
2017-Sep-25 18:55N 01°15' E 103°55'0 0.3
2017-Sep-25 18:28N 01°15' E 103°55'0 0.3
2017-Sep-25 17:58N 01°15' E 103°55'0 0.0
2017-Sep-25 17:22N 01°15' E 103°55'0 0.0
2017-Sep-25 16:55N 01°15' E 103°55'0 0.3
2017-Sep-25 16:22N 01°15' E 103°55'0 0.4
2017-Sep-25 15:58N 01°15' E 103°55'0 0.1
2017-Sep-25 15:22N 01°15' E 103°55'0 0.0
2017-Sep-25 14:49N 01°15' E 103°55'0 0.4
2017-Sep-25 14:20N 01°15' E 103°55'0 0.5
2017-Sep-25 13:55N 01°15' E 103°55'0 0.0
2017-Sep-25 13:25N 01°15' E 103°55'0 0.0
2017-Sep-25 12:55N 01°15' E 103°55'0 0.0
2017-Sep-25 12:25N 01°15' E 103°55'0 0.1
2017-Sep-25 11:55N 01°15' E 103°55'0 0.1
2017-Sep-25 11:13N 01°15' E 103°55'0 0.0
2017-Sep-25 10:55N 01°15' E 103°55'0 0.1
2017-Sep-25 10:28N 01°15' E 103°55'0 0.0
2017-Sep-25 09:58N 01°15' E 103°55'0 0.3
2017-Sep-25 09:30N 01°15' E 103°55'0 0.2
2017-Sep-25 08:55N 01°15' E 103°55'0 0.0
2017-Sep-25 08:28N 01°15' E 103°55'0 0.0
2017-Sep-25 07:58N 01°15' E 103°55'0 0.3
2017-Sep-25 07:30N 01°15' E 103°55'0 0.2
2017-Sep-25 06:58N 01°15' E 103°55'0 0.1
2017-Sep-25 06:25N 01°15' E 103°55'0 0.2
2017-Sep-25 06:00N 01°15' E 103°55'0 0.1
2017-Sep-25 05:26N 01°15' E 103°55'0 0.0
2017-Sep-25 04:58N 01°15' E 103°55'0 0.0
2017-Sep-25 04:30N 01°15' E 103°55'0 0.4
2017-Sep-25 03:58N 01°15' E 103°55'0 0.0
2017-Sep-25 03:22N 01°15' E 103°55'0 0.1
2017-Sep-25 02:43N 01°15' E 103°55'0 0.7
2017-Sep-25 02:29N 01°15' E 103°55'0 0.3
2017-Sep-25 01:55N 01°15' E 103°55'0 0.0
2017-Sep-25 01:25N 01°15' E 103°55'0 0.3
2017-Sep-25 00:41N 01°15' E 103°55'0 0.0
2017-Sep-25 00:30N 01°15' E 103°55'0 0.0
2017-Sep-24 23:54N 01°15' E 103°55'0 0.3
2017-Sep-24 23:28N 01°15' E 103°55'0 0.2
2017-Sep-24 22:57N 01°15' E 103°55'0 0.0
2017-Sep-24 22:09N 01°15' E 103°55'0 0.0
2017-Sep-24 21:17N 01°15' E 103°55'0 0.1
2017-Sep-24 20:15N 01°15' E 103°55'0 0.0
2017-Sep-24 19:48N 01°15' E 103°55'0 0.2
2017-Sep-24 19:07N 01°15' E 103°55'0 0.5
2017-Sep-24 18:52N 01°15' E 103°55'0 0.3
2017-Sep-24 18:19N 01°15' E 103°55'0 0.4
2017-Sep-24 17:57N 01°15' E 103°55'0 0.3
2017-Sep-24 17:28N 01°15' E 103°55'0 0.3
2017-Sep-24 17:00N 01°15' E 103°55'0 0.0
2017-Sep-24 16:19N 01°15' E 103°55'0 0.0
2017-Sep-24 15:53N 01°15' E 103°55'0 0.0
2017-Sep-24 15:27N 01°15' E 103°55'0 0.3
2017-Sep-24 14:55N 01°15' E 103°55'0 0.3
2017-Sep-24 14:17N 01°15' E 103°55'0 0.0
2017-Sep-24 13:47N 01°15' E 103°55'0 0.0
2017-Sep-24 13:18N 01°15' E 103°55'0 0.0
2017-Sep-24 12:49N 01°15' E 103°55'0 0.2
2017-Sep-24 12:25N 01°15' E 103°55'0 0.0
2017-Sep-24 11:49N 01°15' E 103°55'0 0.1
2017-Sep-24 11:19N 01°15' E 103°55'0 0.0
2017-Sep-24 10:49N 01°15' E 103°55'0 0.4
2017-Sep-24 10:21N 01°15' E 103°55'0 0.0
2017-Sep-24 09:54N 01°15' E 103°55'0 0.0
2017-Sep-24 09:25N 01°15' E 103°55'0 0.0
2017-Sep-24 08:57N 01°15' E 103°55'0 0.2
2017-Sep-24 08:10N 01°15' E 103°55'0 1.1
2017-Sep-24 08:00N 01°15' E 103°55'0 0.3
2017-Sep-24 07:28N 01°15' E 103°55'0 0.3
2017-Sep-24 06:50N 01°15' E 103°55'0 0.0
2017-Sep-24 06:22N 01°15' E 103°55'0 0.0
2017-Sep-24 05:55N 01°15' E 103°55'0 0.4
2017-Sep-24 05:25N 01°15' E 103°55'0 0.0
2017-Sep-24 04:58N 01°15' E 103°55'0 0.2
2017-Sep-24 04:22N 01°15' E 103°55'0 0.1
2017-Sep-24 03:58N 01°15' E 103°55'0 0.0
2017-Sep-24 03:29N 01°15' E 103°55'0 0.1
2017-Sep-24 02:52N 01°15' E 103°55'0 0.0
2017-Sep-24 02:22N 01°15' E 103°55'0 0.0
2017-Sep-24 01:58N 01°15' E 103°55'0 0.1
2017-Sep-24 01:28N 01°15' E 103°55'0 0.1
2017-Sep-24 00:55N 01°15' E 103°55'0 0.1
2017-Sep-24 00:28N 01°15' E 103°55'0 0.0
2017-Sep-23 23:52N 01°15' E 103°55'0 0.2
2017-Sep-23 23:28N 01°15' E 103°55'0 0.0
2017-Sep-23 22:58N 01°15' E 103°55'0 0.0
2017-Sep-23 22:25N 01°15' E 103°55'0 0.0
2017-Sep-23 21:55N 01°15' E 103°55'0 0.0
2017-Sep-23 21:28N 01°15' E 103°55'0 0.1
2017-Sep-23 20:56N 01°15' E 103°55'0 0.1
2017-Sep-23 19:55N 01°15' E 103°55'  

Dump ship's entire track history